sensor_id;sensor_type;location;lat;lon;timestamp;P1;durP1;ratioP1;P2;durP2;ratioP2
1020;SDS011;499;42.648;23.270;2023-12-28T00:12:46;3.37;;;3.10;;
1020;SDS011;499;42.648;23.270;2023-12-28T00:32:49;2.73;;;2.07;;
1020;SDS011;499;42.648;23.270;2023-12-28T00:36:17;5.40;;;2.87;;
1020;SDS011;499;42.648;23.270;2023-12-28T00:42:39;3.57;;;2.80;;
1020;SDS011;499;42.648;23.270;2023-12-28T00:45:54;6.00;;;2.60;;
1020;SDS011;499;42.648;23.270;2023-12-28T00:56:05;7.37;;;4.60;;
1020;SDS011;499;42.648;23.270;2023-12-28T00:59:29;4.00;;;3.53;;
1020;SDS011;499;42.648;23.270;2023-12-28T01:06:07;13.87;;;7.10;;
1020;SDS011;499;42.648;23.270;2023-12-28T01:09:07;8.37;;;4.60;;
1020;SDS011;499;42.648;23.270;2023-12-28T01:18:34;3.10;;;2.67;;
1020;SDS011;499;42.648;23.270;2023-12-28T01:21:40;2.80;;;2.60;;
1020;SDS011;499;42.648;23.270;2023-12-28T01:31:08;3.00;;;2.70;;
1020;SDS011;499;42.648;23.270;2023-12-28T01:37:29;3.93;;;3.20;;
1020;SDS011;499;42.648;23.270;2023-12-28T01:40:02;3.37;;;2.60;;
1020;SDS011;499;42.648;23.270;2023-12-28T01:42:57;2.40;;;2.20;;
1020;SDS011;499;42.648;23.270;2023-12-28T01:49:25;5.73;;;3.90;;
1020;SDS011;499;42.648;23.270;2023-12-28T01:56:16;6.73;;;4.00;;
1020;SDS011;499;42.648;23.270;2023-12-28T02:09:20;5.00;;;3.90;;
1020;SDS011;499;42.648;23.270;2023-12-28T02:12:10;4.70;;;2.87;;
1020;SDS011;499;42.648;23.270;2023-12-28T02:18:45;3.87;;;3.40;;
1020;SDS011;499;42.648;23.270;2023-12-28T02:21:56;3.50;;;3.20;;
1020;SDS011;499;42.648;23.270;2023-12-28T02:25:14;3.57;;;2.77;;
1020;SDS011;499;42.648;23.270;2023-12-28T02:28:28;3.47;;;2.90;;
1020;SDS011;499;42.648;23.270;2023-12-28T02:31:36;3.73;;;2.70;;
1020;SDS011;499;42.648;23.270;2023-12-28T02:41:12;5.10;;;3.93;;
1020;SDS011;499;42.648;23.270;2023-12-28T02:44:12;6.47;;;4.40;;
1020;SDS011;499;42.648;23.270;2023-12-28T02:50:37;13.50;;;6.90;;
1020;SDS011;499;42.648;23.270;2023-12-28T02:57:18;5.20;;;3.53;;
1020;SDS011;499;42.648;23.270;2023-12-28T02:59:56;4.87;;;3.70;;
1020;SDS011;499;42.648;23.270;2023-12-28T03:06:02;4.23;;;3.47;;
1020;SDS011;499;42.648;23.270;2023-12-28T03:09:07;4.07;;;3.10;;
1020;SDS011;499;42.648;23.270;2023-12-28T03:15:40;2.43;;;2.23;;
1020;SDS011;499;42.648;23.270;2023-12-28T03:18:58;3.43;;;2.50;;
1020;SDS011;499;42.648;23.270;2023-12-28T03:22:07;6.07;;;3.73;;
1020;SDS011;499;42.648;23.270;2023-12-28T03:25:18;6.40;;;5.80;;
1020;SDS011;499;42.648;23.270;2023-12-28T03:31:57;9.00;;;5.40;;
1020;SDS011;499;42.648;23.270;2023-12-28T03:48:26;3.73;;;3.37;;
1020;SDS011;499;42.648;23.270;2023-12-28T03:51:36;5.23;;;4.70;;
1020;SDS011;499;42.648;23.270;2023-12-28T03:54:41;10.17;;;5.07;;
1020;SDS011;499;42.648;23.270;2023-12-28T04:07:49;3.87;;;3.30;;
1020;SDS011;499;42.648;23.270;2023-12-28T04:10:54;4.17;;;3.77;;
1020;SDS011;499;42.648;23.270;2023-12-28T04:23:57;9.73;;;5.83;;
1020;SDS011;499;42.648;23.270;2023-12-28T04:26:50;8.10;;;4.47;;
1020;SDS011;499;42.648;23.270;2023-12-28T04:29:52;5.40;;;4.43;;
1020;SDS011;499;42.648;23.270;2023-12-28T04:32:50;4.80;;;3.57;;
1020;SDS011;499;42.648;23.270;2023-12-28T04:36:00;5.90;;;3.93;;
1020;SDS011;499;42.648;23.270;2023-12-28T04:55:55;9.27;;;5.13;;
1020;SDS011;499;42.648;23.270;2023-12-28T04:59:05;8.50;;;4.33;;
1020;SDS011;499;42.648;23.270;2023-12-28T05:02:12;5.63;;;4.10;;
1020;SDS011;499;42.648;23.270;2023-12-28T05:05:02;6.37;;;5.77;;
1020;SDS011;499;42.648;23.270;2023-12-28T05:07:59;6.07;;;4.93;;
1020;SDS011;499;42.648;23.270;2023-12-28T05:14:23;7.20;;;5.17;;
1020;SDS011;499;42.648;23.270;2023-12-28T05:17:17;6.80;;;4.13;;
1020;SDS011;499;42.648;23.270;2023-12-28T05:19:51;5.60;;;3.77;;
1020;SDS011;499;42.648;23.270;2023-12-28T05:22:23;2.87;;;2.07;;
1020;SDS011;499;42.648;23.270;2023-12-28T05:25:25;2.87;;;2.17;;
1020;SDS011;499;42.648;23.270;2023-12-28T05:28:39;3.27;;;1.90;;
1020;SDS011;499;42.648;23.270;2023-12-28T05:31:21;2.10;;;2.00;;
1020;SDS011;499;42.648;23.270;2023-12-28T05:37:26;3.77;;;2.77;;
1020;SDS011;499;42.648;23.270;2023-12-28T05:40:15;2.73;;;2.50;;
1020;SDS011;499;42.648;23.270;2023-12-28T05:43:18;2.67;;;2.03;;
1020;SDS011;499;42.648;23.270;2023-12-28T05:46:21;3.23;;;2.83;;
1020;SDS011;499;42.648;23.270;2023-12-28T05:49:00;3.47;;;2.87;;
1020;SDS011;499;42.648;23.270;2023-12-28T05:51:56;3.83;;;2.73;;
1020;SDS011;499;42.648;23.270;2023-12-28T05:54:41;4.20;;;3.13;;
1020;SDS011;499;42.648;23.270;2023-12-28T05:57:34;3.67;;;2.77;;
1020;SDS011;499;42.648;23.270;2023-12-28T06:03:48;4.57;;;4.10;;
1020;SDS011;499;42.648;23.270;2023-12-28T06:10:09;3.70;;;3.23;;
1020;SDS011;499;42.648;23.270;2023-12-28T06:13:12;5.33;;;3.40;;
1020;SDS011;499;42.648;23.270;2023-12-28T06:16:14;4.07;;;3.33;;
1020;SDS011;499;42.648;23.270;2023-12-28T06:19:06;4.80;;;3.70;;
1020;SDS011;499;42.648;23.270;2023-12-28T06:21:50;2.87;;;2.63;;
1020;SDS011;499;42.648;23.270;2023-12-28T06:27:59;19.97;;;10.63;;
1020;SDS011;499;42.648;23.270;2023-12-28T06:30:53;15.37;;;7.90;;
1020;SDS011;499;42.648;23.270;2023-12-28T06:33:28;15.50;;;9.53;;
1020;SDS011;499;42.648;23.270;2023-12-28T06:36:17;13.60;;;6.53;;
1020;SDS011;499;42.648;23.270;2023-12-28T06:39:25;6.87;;;4.57;;
1020;SDS011;499;42.648;23.270;2023-12-28T06:42:34;3.47;;;2.90;;
1020;SDS011;499;42.648;23.270;2023-12-28T06:45:13;4.20;;;3.07;;
1020;SDS011;499;42.648;23.270;2023-12-28T06:51:22;4.00;;;3.63;;
1020;SDS011;499;42.648;23.270;2023-12-28T06:57:15;4.93;;;4.43;;
1020;SDS011;499;42.648;23.270;2023-12-28T07:03:27;8.27;;;6.00;;
1020;SDS011;499;42.648;23.270;2023-12-28T07:06:35;10.07;;;6.40;;
1020;SDS011;499;42.648;23.270;2023-12-28T07:09:29;11.40;;;6.63;;
1020;SDS011;499;42.648;23.270;2023-12-28T07:12:15;10.60;;;7.33;;
1020;SDS011;499;42.648;23.270;2023-12-28T07:15:04;11.97;;;7.63;;
1020;SDS011;499;42.648;23.270;2023-12-28T07:18:16;23.83;;;14.83;;
1020;SDS011;499;42.648;23.270;2023-12-28T07:21:10;10.50;;;7.90;;
1020;SDS011;499;42.648;23.270;2023-12-28T07:24:03;12.57;;;7.30;;
1020;SDS011;499;42.648;23.270;2023-12-28T07:26:43;22.53;;;15.07;;
1020;SDS011;499;42.648;23.270;2023-12-28T07:29:35;13.00;;;9.83;;
1020;SDS011;499;42.648;23.270;2023-12-28T07:32:37;34.43;;;19.70;;
1020;SDS011;499;42.648;23.270;2023-12-28T07:42:21;25.03;;;17.00;;
1020;SDS011;499;42.648;23.270;2023-12-28T07:44:56;20.43;;;16.90;;
1020;SDS011;499;42.648;23.270;2023-12-28T07:47:38;22.00;;;16.90;;
1020;SDS011;499;42.648;23.270;2023-12-28T07:50:46;23.70;;;18.57;;
1020;SDS011;499;42.648;23.270;2023-12-28T07:56:45;21.97;;;17.40;;
1020;SDS011;499;42.648;23.270;2023-12-28T07:59:33;23.40;;;17.50;;
1020;SDS011;499;42.648;23.270;2023-12-28T08:02:29;20.40;;;13.40;;
1020;SDS011;499;42.648;23.270;2023-12-28T08:05:13;26.20;;;18.27;;
1020;SDS011;499;42.648;23.270;2023-12-28T08:08:04;27.10;;;19.07;;
1020;SDS011;499;42.648;23.270;2023-12-28T08:10:36;28.07;;;17.53;;
1020;SDS011;499;42.648;23.270;2023-12-28T08:23:32;22.03;;;17.43;;
1020;SDS011;499;42.648;23.270;2023-12-28T08:26:24;19.50;;;16.90;;
1020;SDS011;499;42.648;23.270;2023-12-28T08:28:53;21.40;;;16.83;;
1020;SDS011;499;42.648;23.270;2023-12-28T08:31:35;21.87;;;17.60;;
1020;SDS011;499;42.648;23.270;2023-12-28T08:34:21;23.93;;;16.73;;
1020;SDS011;499;42.648;23.270;2023-12-28T08:37:34;19.43;;;15.03;;
1020;SDS011;499;42.648;23.270;2023-12-28T08:40:09;22.60;;;16.77;;
1020;SDS011;499;42.648;23.270;2023-12-28T08:42:42;26.17;;;17.43;;
1020;SDS011;499;42.648;23.270;2023-12-28T08:48:32;24.67;;;18.30;;
1020;SDS011;499;42.648;23.270;2023-12-28T08:51:27;22.47;;;16.73;;
1020;SDS011;499;42.648;23.270;2023-12-28T08:54:25;23.47;;;18.07;;
1020;SDS011;499;42.648;23.270;2023-12-28T08:57:34;27.67;;;18.20;;
1020;SDS011;499;42.648;23.270;2023-12-28T09:00:32;25.30;;;17.47;;
1020;SDS011;499;42.648;23.270;2023-12-28T09:03:28;24.53;;;17.20;;
1020;SDS011;499;42.648;23.270;2023-12-28T09:06:45;24.77;;;18.57;;
1020;SDS011;499;42.648;23.270;2023-12-28T09:09:38;28.40;;;18.90;;
1020;SDS011;499;42.648;23.270;2023-12-28T09:12:45;27.90;;;19.60;;
1020;SDS011;499;42.648;23.270;2023-12-28T09:16:02;27.97;;;19.17;;
1020;SDS011;499;42.648;23.270;2023-12-28T09:19:08;23.70;;;19.03;;
1020;SDS011;499;42.648;23.270;2023-12-28T09:22:09;31.37;;;20.60;;
1020;SDS011;499;42.648;23.270;2023-12-28T09:24:47;29.87;;;20.70;;
1020;SDS011;499;42.648;23.270;2023-12-28T09:30:53;25.77;;;19.60;;
1020;SDS011;499;42.648;23.270;2023-12-28T09:33:50;27.17;;;21.13;;
1020;SDS011;499;42.648;23.270;2023-12-28T09:39:33;25.17;;;19.90;;
1020;SDS011;499;42.648;23.270;2023-12-28T09:42:43;25.73;;;20.23;;
1020;SDS011;499;42.648;23.270;2023-12-28T09:45:58;28.30;;;18.93;;
1020;SDS011;499;42.648;23.270;2023-12-28T09:48:55;28.43;;;20.80;;
1020;SDS011;499;42.648;23.270;2023-12-28T09:52:06;27.47;;;20.60;;
1020;SDS011;499;42.648;23.270;2023-12-28T09:55:09;28.20;;;20.00;;
1020;SDS011;499;42.648;23.270;2023-12-28T10:01:22;22.77;;;18.10;;
1020;SDS011;499;42.648;23.270;2023-12-28T10:04:29;24.40;;;18.03;;
1020;SDS011;499;42.648;23.270;2023-12-28T10:07:21;30.73;;;19.57;;
1020;SDS011;499;42.648;23.270;2023-12-28T10:10:10;24.03;;;18.07;;
1020;SDS011;499;42.648;23.270;2023-12-28T10:12:57;29.20;;;21.33;;
1020;SDS011;499;42.648;23.270;2023-12-28T10:22:45;23.13;;;18.30;;
1020;SDS011;499;42.648;23.270;2023-12-28T10:25:38;28.80;;;20.97;;
1020;SDS011;499;42.648;23.270;2023-12-28T10:28:17;28.63;;;20.50;;
1020;SDS011;499;42.648;23.270;2023-12-28T10:38:01;23.03;;;16.53;;
1020;SDS011;499;42.648;23.270;2023-12-28T10:40:50;21.07;;;16.70;;
1020;SDS011;499;42.648;23.270;2023-12-28T10:44:09;21.33;;;14.80;;
1020;SDS011;499;42.648;23.270;2023-12-28T10:46:55;18.90;;;15.10;;
1020;SDS011;499;42.648;23.270;2023-12-28T10:49:35;19.80;;;15.63;;
1020;SDS011;499;42.648;23.270;2023-12-28T10:52:34;20.27;;;15.00;;
1020;SDS011;499;42.648;23.270;2023-12-28T10:55:26;19.20;;;14.20;;
1020;SDS011;499;42.648;23.270;2023-12-28T10:58:14;18.57;;;13.77;;
1020;SDS011;499;42.648;23.270;2023-12-28T11:01:04;18.13;;;13.73;;
1020;SDS011;499;42.648;23.270;2023-12-28T11:03:50;18.90;;;13.70;;
1020;SDS011;499;42.648;23.270;2023-12-28T11:06:48;20.47;;;14.87;;
1020;SDS011;499;42.648;23.270;2023-12-28T11:09:35;16.13;;;14.13;;
1020;SDS011;499;42.648;23.270;2023-12-28T11:12:33;18.53;;;15.00;;
1020;SDS011;499;42.648;23.270;2023-12-28T11:15:28;23.90;;;16.40;;
1020;SDS011;499;42.648;23.270;2023-12-28T11:18:17;20.37;;;15.53;;
1020;SDS011;499;42.648;23.270;2023-12-28T11:20:59;20.30;;;15.50;;
1020;SDS011;499;42.648;23.270;2023-12-28T11:23:59;32.77;;;21.33;;
1020;SDS011;499;42.648;23.270;2023-12-28T11:26:40;32.80;;;21.43;;
1020;SDS011;499;42.648;23.270;2023-12-28T11:29:36;26.97;;;20.37;;
1020;SDS011;499;42.648;23.270;2023-12-28T11:32:13;24.10;;;18.37;;
1020;SDS011;499;42.648;23.270;2023-12-28T11:35:02;26.47;;;19.17;;
1020;SDS011;499;42.648;23.270;2023-12-28T11:37:45;33.53;;;20.00;;
1020;SDS011;499;42.648;23.270;2023-12-28T11:40:28;31.33;;;23.30;;
1020;SDS011;499;42.648;23.270;2023-12-28T11:46:14;30.93;;;22.63;;
1020;SDS011;499;42.648;23.270;2023-12-28T11:49:03;27.70;;;22.23;;
1020;SDS011;499;42.648;23.270;2023-12-28T11:51:44;29.33;;;21.03;;
1020;SDS011;499;42.648;23.270;2023-12-28T11:54:50;27.43;;;21.83;;
1020;SDS011;499;42.648;23.270;2023-12-28T11:57:43;26.80;;;21.73;;
1020;SDS011;499;42.648;23.270;2023-12-28T12:00:24;30.60;;;20.23;;
1020;SDS011;499;42.648;23.270;2023-12-28T12:03:17;28.77;;;19.50;;
1020;SDS011;499;42.648;23.270;2023-12-28T12:06:08;22.97;;;19.30;;
1020;SDS011;499;42.648;23.270;2023-12-28T12:09:01;24.00;;;19.10;;
1020;SDS011;499;42.648;23.270;2023-12-28T12:11:45;26.40;;;16.67;;
1020;SDS011;499;42.648;23.270;2023-12-28T12:14:41;18.50;;;15.90;;
1020;SDS011;499;42.648;23.270;2023-12-28T12:17:41;18.20;;;14.83;;
1020;SDS011;499;42.648;23.270;2023-12-28T12:20:34;18.30;;;14.40;;
1020;SDS011;499;42.648;23.270;2023-12-28T12:23:33;17.67;;;13.60;;
1020;SDS011;499;42.648;23.270;2023-12-28T12:26:29;16.43;;;13.70;;
1020;SDS011;499;42.648;23.270;2023-12-28T12:32:45;19.43;;;14.03;;
1020;SDS011;499;42.648;23.270;2023-12-28T12:35:47;16.30;;;11.83;;
1020;SDS011;499;42.648;23.270;2023-12-28T12:38:43;18.10;;;11.70;;
1020;SDS011;499;42.648;23.270;2023-12-28T12:41:34;15.30;;;11.67;;
1020;SDS011;499;42.648;23.270;2023-12-28T12:44:32;13.97;;;11.20;;
1020;SDS011;499;42.648;23.270;2023-12-28T12:57:44;12.13;;;10.13;;
1020;SDS011;499;42.648;23.270;2023-12-28T13:01:04;13.50;;;9.83;;
1020;SDS011;499;42.648;23.270;2023-12-28T13:04:32;10.87;;;8.90;;
1020;SDS011;499;42.648;23.270;2023-12-28T13:07:33;11.77;;;9.50;;
1020;SDS011;499;42.648;23.270;2023-12-28T13:20:09;12.03;;;7.73;;
1020;SDS011;499;42.648;23.270;2023-12-28T13:26:49;7.53;;;6.37;;
1020;SDS011;499;42.648;23.270;2023-12-28T13:40:14;7.50;;;5.57;;
1020;SDS011;499;42.648;23.270;2023-12-28T14:06:33;3.07;;;2.40;;
1020;SDS011;499;42.648;23.270;2023-12-28T14:09:41;3.20;;;2.80;;
1020;SDS011;499;42.648;23.270;2023-12-28T14:12:37;4.27;;;3.10;;
1020;SDS011;499;42.648;23.270;2023-12-28T14:15:41;4.67;;;3.70;;
1020;SDS011;499;42.648;23.270;2023-12-28T14:18:13;4.90;;;3.50;;
1020;SDS011;499;42.648;23.270;2023-12-28T14:21:00;4.70;;;4.20;;
1020;SDS011;499;42.648;23.270;2023-12-28T14:23:57;3.40;;;2.87;;
1020;SDS011;499;42.648;23.270;2023-12-28T14:27:16;2.77;;;2.00;;
1020;SDS011;499;42.648;23.270;2023-12-28T14:29:58;2.37;;;1.90;;
1020;SDS011;499;42.648;23.270;2023-12-28T14:32:29;5.13;;;3.00;;
1020;SDS011;499;42.648;23.270;2023-12-28T14:35:09;3.73;;;2.83;;
1020;SDS011;499;42.648;23.270;2023-12-28T14:37:54;2.50;;;2.17;;
1020;SDS011;499;42.648;23.270;2023-12-28T14:40:50;2.83;;;1.73;;
1020;SDS011;499;42.648;23.270;2023-12-28T14:43:32;2.60;;;2.40;;
1020;SDS011;499;42.648;23.270;2023-12-28T14:46:27;2.50;;;2.07;;
1020;SDS011;499;42.648;23.270;2023-12-28T14:49:26;2.70;;;1.97;;
1020;SDS011;499;42.648;23.270;2023-12-28T14:52:13;2.47;;;2.27;;
1020;SDS011;499;42.648;23.270;2023-12-28T14:55:19;3.70;;;2.70;;
1020;SDS011;499;42.648;23.270;2023-12-28T14:58:11;17.03;;;12.00;;
1020;SDS011;499;42.648;23.270;2023-12-28T15:14:21;3.30;;;2.77;;
1020;SDS011;499;42.648;23.270;2023-12-28T15:17:42;4.33;;;2.70;;
1020;SDS011;499;42.648;23.270;2023-12-28T15:20:26;3.13;;;2.73;;
1020;SDS011;499;42.648;23.270;2023-12-28T15:36:02;3.23;;;2.03;;
1020;SDS011;499;42.648;23.270;2023-12-28T15:42:19;2.33;;;1.90;;
1020;SDS011;499;42.648;23.270;2023-12-28T15:45:00;3.60;;;2.43;;
1020;SDS011;499;42.648;23.270;2023-12-28T15:47:38;4.10;;;2.67;;
1020;SDS011;499;42.648;23.270;2023-12-28T15:50:19;6.60;;;5.20;;
1020;SDS011;499;42.648;23.270;2023-12-28T15:53:12;3.60;;;2.97;;
1020;SDS011;499;42.648;23.270;2023-12-28T15:55:57;4.10;;;3.10;;
1020;SDS011;499;42.648;23.270;2023-12-28T15:58:37;4.03;;;3.30;;
1020;SDS011;499;42.648;23.270;2023-12-28T16:01:24;4.93;;;4.37;;
1020;SDS011;499;42.648;23.270;2023-12-28T16:04:22;3.87;;;2.43;;
1020;SDS011;499;42.648;23.270;2023-12-28T16:07:42;3.87;;;2.50;;
1020;SDS011;499;42.648;23.270;2023-12-28T16:17:49;3.87;;;3.07;;
1020;SDS011;499;42.648;23.270;2023-12-28T16:20:51;3.70;;;3.40;;
1020;SDS011;499;42.648;23.270;2023-12-28T16:23:52;3.73;;;3.30;;
1020;SDS011;499;42.648;23.270;2023-12-28T16:27:07;9.90;;;7.37;;
1020;SDS011;499;42.648;23.270;2023-12-28T16:29:50;7.27;;;5.77;;
1020;SDS011;499;42.648;23.270;2023-12-28T16:32:57;4.20;;;3.63;;
1020;SDS011;499;42.648;23.270;2023-12-28T16:36:05;8.73;;;4.90;;
1020;SDS011;499;42.648;23.270;2023-12-28T16:45:29;7.00;;;6.03;;
1020;SDS011;499;42.648;23.270;2023-12-28T16:52:13;15.40;;;9.87;;
1020;SDS011;499;42.648;23.270;2023-12-28T16:54:50;9.80;;;8.83;;
1020;SDS011;499;42.648;23.270;2023-12-28T16:57:36;10.00;;;7.40;;
1020;SDS011;499;42.648;23.270;2023-12-28T17:00:20;13.23;;;8.27;;
1020;SDS011;499;42.648;23.270;2023-12-28T17:03:42;15.73;;;7.73;;
1020;SDS011;499;42.648;23.270;2023-12-28T17:06:37;12.03;;;7.37;;
1020;SDS011;499;42.648;23.270;2023-12-28T17:09:14;7.60;;;6.80;;
1020;SDS011;499;42.648;23.270;2023-12-28T17:12:03;7.50;;;6.63;;
1020;SDS011;499;42.648;23.270;2023-12-28T17:14:57;5.00;;;4.50;;
1020;SDS011;499;42.648;23.270;2023-12-28T17:17:33;6.83;;;4.47;;
1020;SDS011;499;42.648;23.270;2023-12-28T17:23:18;6.90;;;5.50;;
1020;SDS011;499;42.648;23.270;2023-12-28T17:26:20;6.37;;;4.50;;
1020;SDS011;499;42.648;23.270;2023-12-28T17:29:00;4.97;;;3.63;;
1020;SDS011;499;42.648;23.270;2023-12-28T17:31:38;4.23;;;3.73;;
1020;SDS011;499;42.648;23.270;2023-12-28T17:34:34;8.63;;;5.90;;
1020;SDS011;499;42.648;23.270;2023-12-28T17:37:19;5.27;;;4.53;;
1020;SDS011;499;42.648;23.270;2023-12-28T17:40:11;4.07;;;3.30;;
1020;SDS011;499;42.648;23.270;2023-12-28T17:42:52;13.17;;;8.67;;
1020;SDS011;499;42.648;23.270;2023-12-28T17:45:29;3.33;;;2.97;;
1020;SDS011;499;42.648;23.270;2023-12-28T17:48:09;4.57;;;2.90;;
1020;SDS011;499;42.648;23.270;2023-12-28T17:50:45;6.40;;;3.33;;
1020;SDS011;499;42.648;23.270;2023-12-28T17:53:16;5.33;;;4.23;;
1020;SDS011;499;42.648;23.270;2023-12-28T17:56:00;5.57;;;4.50;;
1020;SDS011;499;42.648;23.270;2023-12-28T17:58:32;4.40;;;3.50;;
1020;SDS011;499;42.648;23.270;2023-12-28T18:01:05;5.37;;;3.57;;
1020;SDS011;499;42.648;23.270;2023-12-28T18:03:40;5.60;;;3.93;;
1020;SDS011;499;42.648;23.270;2023-12-28T18:06:28;5.00;;;4.17;;
1020;SDS011;499;42.648;23.270;2023-12-28T18:09:18;4.17;;;3.80;;
1020;SDS011;499;42.648;23.270;2023-12-28T18:19:16;12.37;;;9.70;;
1020;SDS011;499;42.648;23.270;2023-12-28T18:29:08;5.97;;;3.90;;
1020;SDS011;499;42.648;23.270;2023-12-28T18:32:12;5.93;;;4.77;;
1020;SDS011;499;42.648;23.270;2023-12-28T18:35:18;4.20;;;3.80;;
1020;SDS011;499;42.648;23.270;2023-12-28T18:38:28;6.97;;;3.70;;
1020;SDS011;499;42.648;23.270;2023-12-28T18:44:53;5.07;;;4.10;;
1020;SDS011;499;42.648;23.270;2023-12-28T18:47:39;7.43;;;5.17;;
1020;SDS011;499;42.648;23.270;2023-12-28T18:54:03;4.17;;;3.50;;
1020;SDS011;499;42.648;23.270;2023-12-28T19:03:55;3.60;;;3.30;;
1020;SDS011;499;42.648;23.270;2023-12-28T19:06:42;4.50;;;4.00;;
1020;SDS011;499;42.648;23.270;2023-12-28T19:09:19;5.20;;;3.57;;
1020;SDS011;499;42.648;23.270;2023-12-28T19:12:01;4.50;;;3.67;;
1020;SDS011;499;42.648;23.270;2023-12-28T19:14:31;4.73;;;3.90;;
1020;SDS011;499;42.648;23.270;2023-12-28T19:17:07;15.03;;;8.27;;
1020;SDS011;499;42.648;23.270;2023-12-28T19:19:53;5.53;;;5.03;;
1020;SDS011;499;42.648;23.270;2023-12-28T19:23:19;6.07;;;4.73;;
1020;SDS011;499;42.648;23.270;2023-12-28T19:26:43;5.90;;;4.50;;
1020;SDS011;499;42.648;23.270;2023-12-28T19:29:45;8.13;;;5.67;;
1020;SDS011;499;42.648;23.270;2023-12-28T19:32:58;8.57;;;5.67;;
1020;SDS011;499;42.648;23.270;2023-12-28T19:36:02;14.53;;;10.00;;
1020;SDS011;499;42.648;23.270;2023-12-28T19:42:19;13.70;;;8.63;;
1020;SDS011;499;42.648;23.270;2023-12-28T19:48:38;23.87;;;11.80;;
1020;SDS011;499;42.648;23.270;2023-12-28T19:51:45;13.30;;;10.07;;
1020;SDS011;499;42.648;23.270;2023-12-28T19:54:58;13.73;;;9.70;;
1020;SDS011;499;42.648;23.270;2023-12-28T19:58:02;12.90;;;9.10;;
1020;SDS011;499;42.648;23.270;2023-12-28T20:01:04;12.37;;;8.43;;
1020;SDS011;499;42.648;23.270;2023-12-28T20:04:18;12.20;;;8.70;;
1020;SDS011;499;42.648;23.270;2023-12-28T20:16:56;7.20;;;5.23;;
1020;SDS011;499;42.648;23.270;2023-12-28T20:26:46;5.00;;;3.90;;
1020;SDS011;499;42.648;23.270;2023-12-28T20:29:54;6.47;;;4.17;;
1020;SDS011;499;42.648;23.270;2023-12-28T20:32:46;6.20;;;4.30;;
1020;SDS011;499;42.648;23.270;2023-12-28T20:42:36;4.87;;;3.70;;
1020;SDS011;499;42.648;23.270;2023-12-28T20:45:47;6.33;;;4.27;;
1020;SDS011;499;42.648;23.270;2023-12-28T20:48:45;5.47;;;4.00;;
1020;SDS011;499;42.648;23.270;2023-12-28T20:51:35;5.10;;;3.63;;
1020;SDS011;499;42.648;23.270;2023-12-28T20:58:25;5.00;;;4.23;;
1020;SDS011;499;42.648;23.270;2023-12-28T21:01:14;6.10;;;3.77;;
1020;SDS011;499;42.648;23.270;2023-12-28T21:03:58;4.40;;;4.00;;
1020;SDS011;499;42.648;23.270;2023-12-28T21:07:07;4.53;;;4.00;;
1020;SDS011;499;42.648;23.270;2023-12-28T21:13:40;4.13;;;3.33;;
1020;SDS011;499;42.648;23.270;2023-12-28T21:16:52;5.03;;;3.93;;
1020;SDS011;499;42.648;23.270;2023-12-28T21:19:43;9.20;;;4.47;;
1020;SDS011;499;42.648;23.270;2023-12-28T21:39:34;6.03;;;4.80;;
1020;SDS011;499;42.648;23.270;2023-12-28T21:45:56;27.40;;;13.33;;
1020;SDS011;499;42.648;23.270;2023-12-28T21:49:02;10.40;;;6.67;;
1020;SDS011;499;42.648;23.270;2023-12-28T21:52:07;8.53;;;5.20;;
1020;SDS011;499;42.648;23.270;2023-12-28T21:55:22;8.07;;;5.50;;
1020;SDS011;499;42.648;23.270;2023-12-28T21:58:16;6.93;;;6.00;;
1020;SDS011;499;42.648;23.270;2023-12-28T22:04:26;5.77;;;4.40;;
1020;SDS011;499;42.648;23.270;2023-12-28T22:07:37;6.37;;;5.20;;
1020;SDS011;499;42.648;23.270;2023-12-28T22:10:40;6.93;;;5.50;;
1020;SDS011;499;42.648;23.270;2023-12-28T22:13:38;5.53;;;4.00;;
1020;SDS011;499;42.648;23.270;2023-12-28T22:16:41;5.07;;;4.57;;
1020;SDS011;499;42.648;23.270;2023-12-28T22:19:45;5.17;;;4.20;;
1020;SDS011;499;42.648;23.270;2023-12-28T22:22:51;5.70;;;4.67;;
1020;SDS011;499;42.648;23.270;2023-12-28T22:25:59;8.90;;;5.10;;
1020;SDS011;499;42.648;23.270;2023-12-28T22:29:00;6.77;;;5.13;;
1020;SDS011;499;42.648;23.270;2023-12-28T22:32:12;9.10;;;5.57;;
1020;SDS011;499;42.648;23.270;2023-12-28T22:38:38;4.20;;;3.90;;
1020;SDS011;499;42.648;23.270;2023-12-28T22:41:47;7.80;;;4.90;;
1020;SDS011;499;42.648;23.270;2023-12-28T22:44:53;7.80;;;5.57;;
1020;SDS011;499;42.648;23.270;2023-12-28T22:48:03;7.67;;;6.30;;
1020;SDS011;499;42.648;23.270;2023-12-28T23:04:41;8.47;;;5.20;;
1020;SDS011;499;42.648;23.270;2023-12-28T23:14:09;6.83;;;5.83;;
1020;SDS011;499;42.648;23.270;2023-12-28T23:17:10;7.50;;;6.50;;
1020;SDS011;499;42.648;23.270;2023-12-28T23:20:02;6.20;;;5.47;;
1020;SDS011;499;42.648;23.270;2023-12-28T23:23:04;6.23;;;4.63;;
1020;SDS011;499;42.648;23.270;2023-12-28T23:26:18;7.20;;;4.37;;
1020;SDS011;499;42.648;23.270;2023-12-28T23:32:21;6.00;;;4.83;;
1020;SDS011;499;42.648;23.270;2023-12-28T23:41:37;7.13;;;5.27;;
1020;SDS011;499;42.648;23.270;2023-12-28T23:47:46;6.80;;;5.57;;
1020;SDS011;499;42.648;23.270;2023-12-28T23:51:02;7.40;;;5.00;;
1020;SDS011;499;42.648;23.270;2023-12-28T23:57:35;8.47;;;5.53;;
